createdAt,value
2022-12-25T00:01:41.241Z,8.63
2022-12-25T00:04:09.076Z,8.57
2022-12-25T00:06:37.157Z,8.55
2022-12-25T00:09:05.130Z,8.53
2022-12-25T00:11:33.033Z,8.53
2022-12-25T00:14:00.730Z,8.49
2022-12-25T00:16:28.550Z,8.41
2022-12-25T00:18:58.998Z,8.34
2022-12-25T00:21:27.705Z,8.29
2022-12-25T00:23:57.505Z,8.27
2022-12-25T00:26:27.088Z,8.18
2022-12-25T00:28:56.351Z,8.08
2022-12-25T00:31:25.264Z,7.99
2022-12-25T00:33:53.557Z,7.94
2022-12-25T00:36:22.293Z,7.89
2022-12-25T00:38:50.278Z,7.85
2022-12-25T00:41:41.200Z,7.79
2022-12-25T00:44:11.069Z,7.77
2022-12-25T00:46:38.864Z,7.68
2022-12-25T00:49:07.040Z,7.64
2022-12-25T00:51:34.854Z,7.59
2022-12-25T00:54:02.945Z,7.55
2022-12-25T00:56:30.796Z,7.52
2022-12-25T00:58:58.558Z,7.54
2022-12-25T01:01:26.492Z,7.51
2022-12-25T01:03:55.269Z,7.46
2022-12-25T01:06:23.163Z,7.40
2022-12-25T01:09:09.780Z,7.32
2022-12-25T01:11:37.578Z,7.29
2022-12-25T01:14:05.340Z,7.32
2022-12-25T01:16:33.448Z,7.32
2022-12-25T01:19:01.820Z,7.33
2022-12-25T01:21:30.156Z,7.37
2022-12-25T01:23:58.153Z,7.41
2022-12-25T01:26:27.211Z,7.42
2022-12-25T01:28:55.204Z,7.41
2022-12-25T01:31:24.558Z,7.40
2022-12-25T01:33:52.807Z,7.41
2022-12-25T01:36:25.683Z,7.44
2022-12-25T01:38:54.285Z,7.49
2022-12-25T01:41:24.069Z,7.54
2022-12-25T01:43:59.462Z,7.55
2022-12-25T01:46:27.468Z,7.49
2022-12-25T01:48:57.237Z,7.43
2022-12-25T01:51:29.788Z,7.41
2022-12-25T01:54:00.543Z,7.42
2022-12-25T01:56:29.019Z,7.42
2022-12-25T01:58:57.441Z,7.42
2022-12-25T02:01:25.520Z,7.38
2022-12-25T02:03:59.280Z,7.35
2022-12-25T02:06:30.636Z,7.34
2022-12-25T02:08:59.241Z,7.31
2022-12-25T02:11:45.814Z,7.29
2022-12-25T02:14:13.675Z,7.28
2022-12-25T02:16:57.879Z,7.26
2022-12-25T02:20:10.047Z,7.25
2022-12-25T02:23:11.699Z,7.24
2022-12-25T02:25:53.548Z,7.16
2022-12-25T02:28:26.242Z,7.07
2022-12-25T02:31:03.275Z,7.01
2022-12-25T02:33:57.646Z,6.94
2022-12-25T02:36:28.342Z,6.89
2022-12-25T02:39:17.551Z,6.83
2022-12-25T02:41:47.792Z,6.77
2022-12-25T02:44:37.238Z,6.77
2022-12-25T02:47:25.822Z,6.80
2022-12-25T02:50:13.326Z,6.80
2022-12-25T02:53:01.624Z,6.72
2022-12-25T02:55:52.787Z,6.64
2022-12-25T02:58:40.861Z,6.60
2022-12-25T03:01:33.909Z,6.53
2022-12-25T03:04:24.732Z,6.49
2022-12-25T03:07:14.738Z,6.44
2022-12-25T03:10:06.337Z,6.35
2022-12-25T03:12:50.768Z,6.32
2022-12-25T03:15:38.162Z,6.22
2022-12-25T03:18:10.367Z,6.16
2022-12-25T03:20:56.903Z,6.11
2022-12-25T03:23:47.981Z,6.06
2022-12-25T03:26:35.092Z,6.04
2022-12-25T03:29:03.318Z,6.00
2022-12-25T03:36:09.416Z,5.95
2022-12-25T03:39:13.604Z,5.90
2022-12-25T03:42:20.837Z,5.82
2022-12-25T03:45:38.087Z,5.77
2022-12-25T03:48:27.884Z,5.71
2022-12-25T03:51:22.241Z,5.63
2022-12-25T03:54:13.872Z,5.49
2022-12-25T03:57:01.629Z,5.33
2022-12-25T03:59:48.112Z,5.22
2022-12-25T04:02:34.541Z,5.21
2022-12-25T04:05:21.357Z,5.21
2022-12-25T04:08:07.768Z,5.10
2022-12-25T04:10:54.269Z,5.06
2022-12-25T04:13:40.895Z,5.08
2022-12-25T04:16:27.482Z,5.14
2022-12-25T04:19:14.139Z,5.16
2022-12-25T04:22:00.691Z,5.17
2022-12-25T04:24:47.240Z,5.20
2022-12-25T04:27:33.797Z,5.22
2022-12-25T04:30:20.395Z,5.20
2022-12-25T04:33:06.878Z,5.21
2022-12-25T04:35:53.240Z,5.18
2022-12-25T04:38:22.291Z,5.14
2022-12-25T04:40:50.007Z,5.12
2022-12-25T04:43:17.717Z,5.12
2022-12-25T04:45:53.293Z,5.08
2022-12-25T04:48:21.198Z,5.04
2022-12-25T04:50:49.090Z,5.00
2022-12-25T04:53:17.957Z,4.96
2022-12-25T04:55:45.756Z,5.00
2022-12-25T04:58:14.094Z,5.02
2022-12-25T05:00:42.025Z,5.03
2022-12-25T05:03:10.049Z,5.04
2022-12-25T05:05:40.468Z,5.04
2022-12-25T05:08:08.435Z,5.05
2022-12-25T05:10:39.947Z,5.01
2022-12-25T05:13:07.636Z,4.95
2022-12-25T05:15:35.435Z,4.87
2022-12-25T05:18:03.433Z,4.81
2022-12-25T05:20:34.827Z,4.73
2022-12-25T05:23:10.777Z,4.75
2022-12-25T05:25:40.462Z,4.77
2022-12-25T05:28:08.195Z,4.75
2022-12-25T05:30:36.006Z,4.63
2022-12-25T05:33:04.028Z,4.55
2022-12-25T05:35:32.114Z,4.57
2022-12-25T05:37:59.816Z,4.60
2022-12-25T05:40:27.722Z,4.68
2022-12-25T05:42:55.446Z,4.72
2022-12-25T05:45:23.157Z,4.75
2022-12-25T05:47:50.906Z,4.75
2022-12-25T05:50:18.675Z,4.69
2022-12-25T05:52:46.391Z,4.68
2022-12-25T05:55:14.196Z,4.67
2022-12-25T05:57:41.913Z,4.62
2022-12-25T06:00:10.381Z,4.58
2022-12-25T06:02:41.160Z,4.55
2022-12-25T06:05:09.940Z,4.44
2022-12-25T06:07:37.672Z,4.38
2022-12-25T06:10:06.648Z,4.34
2022-12-25T06:12:34.543Z,4.29
2022-12-25T06:15:02.519Z,4.24
2022-12-25T06:17:30.258Z,4.27
2022-12-25T06:19:58.386Z,4.30
2022-12-25T06:22:30.757Z,4.34
2022-12-25T06:24:59.098Z,4.35
2022-12-25T06:27:28.386Z,4.28
2022-12-25T06:29:56.159Z,4.22
2022-12-25T06:32:23.860Z,4.15
2022-12-25T06:34:51.623Z,4.07
2022-12-25T06:37:19.871Z,4.01
2022-12-25T06:39:48.442Z,4.02
2022-12-25T06:42:16.294Z,4.05
2022-12-25T06:44:44.833Z,4.06
2022-12-25T06:47:12.610Z,4.08
2022-12-25T06:49:40.423Z,4.07
2022-12-25T06:52:08.234Z,4.01
2022-12-25T06:54:35.982Z,3.97
2022-12-25T06:57:03.790Z,3.97
2022-12-25T06:59:31.484Z,3.97
2022-12-25T07:01:59.596Z,3.93
2022-12-25T07:04:35.748Z,3.93
2022-12-25T07:07:09.005Z,3.94
2022-12-25T07:09:39.342Z,3.92
2022-12-25T07:12:19.829Z,3.94
2022-12-25T07:14:50.542Z,3.93
2022-12-25T07:17:19.805Z,3.99
2022-12-25T07:19:48.208Z,4.07
2022-12-25T07:22:16.829Z,4.14
2022-12-25T07:24:44.636Z,4.20
2022-12-25T07:27:12.557Z,4.22
2022-12-25T07:29:40.389Z,4.22
2022-12-25T07:32:08.436Z,4.25
2022-12-25T07:34:36.274Z,4.31
2022-12-25T07:37:04.064Z,4.36
2022-12-25T07:39:31.916Z,4.42
2022-12-25T07:41:59.649Z,4.41
2022-12-25T07:44:28.847Z,4.43
2022-12-25T07:46:56.938Z,4.50
2022-12-25T07:49:24.689Z,4.51
2022-12-25T07:51:52.424Z,4.52
2022-12-25T07:54:20.864Z,4.54
2022-12-25T07:56:52.576Z,4.59
2022-12-25T07:59:20.633Z,4.61
2022-12-25T08:01:50.465Z,4.64
2022-12-25T08:04:18.612Z,4.71
2022-12-25T08:06:46.522Z,4.79
2022-12-25T08:09:14.283Z,4.91
2022-12-25T08:11:46.673Z,4.96
2022-12-25T08:14:14.709Z,5.05
2022-12-25T08:16:42.644Z,5.14
2022-12-25T08:19:11.267Z,5.28
2022-12-25T08:21:39.181Z,5.40
2022-12-25T08:24:07.178Z,5.49
2022-12-25T08:26:34.870Z,5.61
2022-12-25T08:29:02.724Z,5.73
2022-12-25T08:31:31.062Z,5.83
2022-12-25T08:33:59.786Z,5.94
2022-12-25T08:36:27.607Z,6.06
2022-12-25T08:39:02.071Z,6.18
2022-12-25T08:41:31.766Z,6.33
2022-12-25T08:43:59.500Z,6.48
2022-12-25T08:46:27.273Z,6.65
2022-12-25T08:48:56.796Z,6.85
2022-12-25T08:51:26.043Z,7.05
2022-12-25T08:53:59.323Z,7.26
2022-12-25T08:56:27.171Z,7.49
2022-12-25T08:58:54.938Z,7.68
2022-12-25T09:01:22.868Z,7.85
2022-12-25T09:03:50.779Z,7.97
2022-12-25T09:06:18.748Z,8.07
2022-12-25T09:08:49.487Z,8.21
2022-12-25T09:11:19.948Z,8.26
2022-12-25T09:13:49.133Z,8.28
2022-12-25T09:16:20.579Z,8.30
2022-12-25T09:18:49.474Z,8.36
2022-12-25T09:21:17.919Z,8.44
2022-12-25T09:23:45.709Z,8.54
2022-12-25T09:26:15.768Z,8.48
2022-12-25T09:28:50.607Z,8.39
2022-12-25T09:31:21.512Z,8.33
2022-12-25T09:33:50.816Z,8.34
2022-12-25T09:36:18.715Z,8.44
2022-12-25T09:38:46.517Z,8.60
2022-12-25T09:41:23.713Z,8.70
2022-12-25T09:43:56.141Z,8.77
2022-12-25T09:46:33.060Z,9.00
2022-12-25T09:49:13.143Z,9.22
2022-12-25T09:51:44.463Z,9.43
2022-12-25T09:54:35.155Z,9.61
2022-12-25T09:57:03.663Z,9.82
2022-12-25T09:59:31.462Z,10.02
2022-12-25T10:02:06.310Z,10.28
2022-12-25T10:04:47.640Z,10.58
2022-12-25T10:07:37.322Z,10.87
2022-12-25T10:10:23.585Z,11.15
2022-12-25T10:12:51.440Z,11.42
2022-12-25T10:15:39.226Z,11.66
2022-12-25T10:18:22.150Z,11.86
2022-12-25T10:20:55.057Z,12.09
2022-12-25T10:23:26.488Z,12.33
2022-12-25T10:25:54.932Z,12.54
2022-12-25T10:28:30.596Z,12.80
2022-12-25T10:31:02.407Z,12.93
2022-12-25T10:33:31.086Z,13.06
2022-12-25T10:36:00.083Z,13.18
2022-12-25T10:38:27.973Z,13.29
2022-12-25T10:41:20.966Z,13.37
2022-12-25T10:43:54.823Z,13.35
2022-12-25T10:46:24.948Z,13.35
2022-12-25T10:48:58.036Z,13.30
2022-12-25T10:51:33.708Z,13.33
2022-12-25T10:54:19.799Z,13.42
2022-12-25T10:56:54.559Z,13.48
2022-12-25T10:59:23.344Z,13.51
2022-12-25T11:01:55.139Z,13.54
2022-12-25T11:04:28.686Z,13.64
2022-12-25T11:07:14.234Z,13.81
2022-12-25T11:09:49.837Z,13.97
2022-12-25T11:12:20.084Z,14.07
2022-12-25T11:14:57.146Z,14.19
2022-12-25T11:17:25.933Z,14.34
2022-12-25T11:19:58.622Z,14.43
2022-12-25T11:22:28.893Z,14.49
2022-12-25T11:24:56.627Z,14.52
2022-12-25T11:27:28.008Z,14.52
2022-12-25T11:29:59.271Z,14.49
2022-12-25T11:32:30.735Z,14.54
2022-12-25T11:34:59.289Z,14.63
2022-12-25T11:37:38.568Z,14.69
2022-12-25T11:40:13.083Z,14.76
2022-12-25T11:42:45.386Z,14.87
2022-12-25T11:45:24.713Z,14.97
2022-12-25T11:48:16.145Z,15.07
2022-12-25T11:50:48.150Z,15.13
2022-12-25T11:53:19.040Z,15.21
2022-12-25T11:55:54.817Z,15.27
2022-12-25T11:58:45.210Z,15.38
2022-12-25T12:01:30.480Z,15.49
2022-12-25T12:04:01.097Z,15.59
2022-12-25T12:06:48.090Z,15.64
2022-12-25T12:09:31.183Z,15.63
2022-12-25T12:12:08.601Z,15.69
2022-12-25T12:15:03.961Z,15.86
2022-12-25T12:17:32.158Z,16.05
2022-12-25T12:20:13.831Z,16.16
2022-12-25T12:22:49.112Z,16.38
2022-12-25T12:25:18.707Z,16.54
2022-12-25T12:27:54.848Z,16.68
2022-12-25T12:30:31.486Z,16.74
2022-12-25T12:33:01.845Z,16.81
2022-12-25T12:35:35.745Z,16.78
2022-12-25T12:38:18.347Z,16.77
2022-12-25T12:40:57.313Z,16.83
2022-12-25T12:43:30.256Z,16.91
2022-12-25T12:46:06.481Z,17.02
2022-12-25T12:48:41.523Z,17.09
2022-12-25T12:51:34.160Z,17.21
2022-12-25T12:54:24.313Z,17.23
2022-12-25T12:57:23.006Z,17.04
2022-12-25T12:59:50.780Z,17.24
2022-12-25T13:02:46.772Z,16.97
2022-12-25T13:05:34.955Z,16.65
2022-12-25T13:08:41.808Z,16.08
2022-12-25T13:11:20.608Z,15.55
2022-12-25T13:13:50.690Z,15.11
2022-12-25T13:16:31.967Z,14.78
2022-12-25T13:19:04.477Z,14.49
2022-12-25T13:21:33.156Z,14.14
2022-12-25T13:24:03.154Z,13.89
2022-12-25T13:26:31.126Z,13.67
2022-12-25T13:28:59.078Z,13.46
2022-12-25T13:31:28.836Z,13.26
2022-12-25T13:33:59.973Z,13.07
2022-12-25T13:36:29.815Z,13.09
2022-12-25T13:38:58.621Z,13.55
2022-12-25T13:41:51.567Z,14.06
2022-12-25T13:44:26.723Z,14.58
2022-12-25T13:46:54.528Z,14.79
2022-12-25T13:49:24.361Z,14.43
2022-12-25T13:51:52.117Z,14.05
2022-12-25T13:54:19.904Z,13.69
2022-12-25T13:56:50.761Z,13.39
2022-12-25T13:59:21.528Z,13.16
2022-12-25T14:01:50.240Z,12.96
2022-12-25T14:04:21.450Z,12.74
2022-12-25T14:06:50.058Z,12.51
2022-12-25T14:09:18.468Z,12.34
2022-12-25T14:11:50.020Z,12.17
2022-12-25T14:14:22.708Z,11.97
2022-12-25T14:16:53.465Z,11.80
2022-12-25T14:19:26.349Z,11.67
2022-12-25T14:22:05.175Z,11.53
2022-12-25T14:24:34.235Z,11.40
2022-12-25T14:27:04.751Z,11.27
2022-12-25T14:29:39.657Z,11.12
2022-12-25T14:32:08.242Z,10.98
2022-12-25T14:34:36.040Z,10.87
2022-12-25T14:37:04.274Z,10.80
2022-12-25T14:39:38.648Z,10.73
2022-12-25T14:42:16.900Z,10.62
2022-12-25T14:44:56.994Z,10.52
2022-12-25T14:47:26.054Z,10.41
2022-12-25T14:49:54.695Z,10.32
2022-12-25T14:52:27.067Z,10.24
2022-12-25T14:55:03.476Z,10.19
2022-12-25T14:57:38.122Z,10.08
2022-12-25T15:00:23.674Z,10.01
2022-12-25T15:02:53.642Z,9.95
2022-12-25T15:05:29.601Z,9.89
2022-12-25T15:08:06.951Z,9.83
2022-12-25T15:13:24.388Z,9.74
2022-12-25T15:16:14.717Z,9.69
2022-12-25T15:18:44.662Z,9.65
2022-12-25T15:21:33.461Z,9.61
2022-12-25T15:24:01.723Z,9.56
2022-12-25T15:26:30.961Z,9.54
2022-12-25T15:28:58.912Z,9.50
2022-12-25T15:31:31.635Z,9.44
2022-12-25T15:34:01.882Z,9.39
2022-12-25T15:36:29.838Z,9.34
2022-12-25T15:38:57.892Z,9.34
2022-12-25T15:41:49.274Z,9.34
2022-12-25T15:44:17.558Z,9.33
2022-12-25T15:46:49.027Z,9.33
2022-12-25T15:49:17.165Z,9.32
2022-12-25T15:51:45.985Z,9.31
2022-12-25T15:54:13.925Z,9.31
2022-12-25T15:56:44.259Z,9.29
2022-12-25T15:59:13.525Z,9.26
2022-12-25T16:01:50.359Z,9.22
2022-12-25T16:04:20.814Z,9.17
2022-12-25T16:06:49.262Z,9.10
2022-12-25T16:09:18.147Z,9.05
2022-12-25T16:11:46.712Z,9.01
2022-12-25T16:14:15.042Z,9.00
2022-12-25T16:16:42.851Z,8.99
2022-12-25T16:19:10.684Z,9.01
2022-12-25T16:21:41.614Z,9.02
2022-12-25T16:24:09.849Z,9.01
2022-12-25T16:26:37.718Z,9.01
2022-12-25T16:29:07.418Z,8.98
2022-12-25T16:31:36.858Z,8.99
2022-12-25T16:34:05.510Z,8.99
2022-12-25T16:36:33.926Z,8.97
2022-12-25T16:39:02.831Z,8.94
2022-12-25T16:41:30.753Z,8.93
2022-12-25T16:43:58.567Z,8.92
2022-12-25T16:46:26.389Z,8.90
2022-12-25T16:48:55.277Z,8.89
2022-12-25T16:51:23.634Z,8.90
2022-12-25T16:53:53.209Z,8.88
2022-12-25T16:56:25.675Z,8.88
2022-12-25T16:58:54.058Z,8.91
2022-12-25T17:01:23.126Z,8.96
2022-12-25T17:03:52.021Z,8.98
2022-12-25T17:06:24.868Z,9.00
2022-12-25T17:08:55.515Z,9.03
2022-12-25T17:11:27.285Z,9.04
2022-12-25T17:13:56.463Z,9.04
2022-12-25T17:16:27.053Z,9.01
2022-12-25T17:18:56.671Z,8.91
2022-12-25T17:21:26.733Z,8.81
2022-12-25T17:24:01.642Z,8.73
2022-12-25T17:26:32.870Z,8.68
2022-12-25T17:29:01.285Z,8.62
2022-12-25T17:31:29.576Z,8.58
2022-12-25T17:33:57.735Z,8.53
2022-12-25T17:36:25.790Z,8.51
2022-12-25T17:38:55.420Z,8.50
2022-12-25T17:41:24.115Z,8.45
2022-12-25T17:43:52.124Z,8.39
2022-12-25T17:46:22.307Z,8.34
2022-12-25T17:48:52.574Z,8.30
2022-12-25T17:51:23.232Z,8.23
2022-12-25T17:53:56.861Z,8.18
2022-12-25T17:56:25.560Z,8.14
2022-12-25T17:58:56.632Z,8.11
2022-12-25T18:01:26.412Z,8.13
2022-12-25T18:03:55.105Z,8.13
2022-12-25T18:06:26.192Z,8.10
2022-12-25T18:08:55.203Z,8.11
2022-12-25T18:11:27.634Z,8.13
2022-12-25T18:13:58.048Z,8.17
2022-12-25T18:16:27.274Z,8.18
2022-12-25T18:18:55.203Z,8.15
2022-12-25T18:21:23.738Z,8.14
2022-12-25T18:23:52.029Z,8.09
2022-12-25T18:26:20.417Z,8.06
2022-12-25T18:28:49.567Z,8.10
2022-12-25T18:31:20.785Z,8.12
2022-12-25T18:33:49.708Z,8.10
2022-12-25T18:36:20.744Z,8.10
2022-12-25T18:38:50.121Z,8.08
2022-12-25T18:41:18.269Z,8.04
2022-12-25T18:43:53.880Z,8.00
2022-12-25T18:46:25.381Z,7.98
2022-12-25T18:48:57.104Z,8.00
2022-12-25T18:51:27.725Z,8.01
2022-12-25T18:56:17.549Z,8.09
2022-12-25T18:58:47.177Z,8.06
2022-12-25T19:01:19.306Z,8.05
2022-12-25T19:03:49.524Z,8.08
2022-12-25T19:06:19.969Z,8.09
2022-12-25T19:08:48.370Z,8.09
2022-12-25T19:11:16.661Z,8.10
2022-12-25T19:13:44.679Z,8.16
2022-12-25T19:16:12.854Z,8.19
2022-12-25T19:18:40.838Z,8.22
2022-12-25T19:21:10.123Z,8.22
2022-12-25T19:23:38.748Z,8.24
2022-12-25T19:26:08.333Z,8.21
2022-12-25T19:28:37.650Z,8.18
2022-12-25T19:31:07.754Z,8.15
2022-12-25T19:33:36.982Z,8.11
2022-12-25T19:36:08.185Z,8.07
2022-12-25T19:38:36.282Z,8.02
2022-12-25T19:41:12.647Z,7.95
2022-12-25T19:43:41.619Z,7.91
2022-12-25T19:46:23.954Z,7.90
2022-12-25T19:48:52.441Z,7.88
2022-12-25T19:51:27.201Z,7.91
2022-12-25T19:53:58.234Z,7.91
2022-12-25T19:56:27.922Z,7.86
2022-12-25T19:58:56.787Z,7.80
2022-12-25T20:01:27.040Z,7.77
2022-12-25T20:03:55.396Z,7.71
2022-12-25T20:06:29.611Z,7.70
2022-12-25T20:09:01.239Z,7.70
2022-12-25T20:11:30.234Z,7.72
2022-12-25T20:13:58.766Z,7.77
2022-12-25T20:16:26.868Z,7.85
2022-12-25T20:18:55.886Z,7.92
2022-12-25T20:21:24.456Z,7.96
2022-12-25T20:23:54.697Z,7.97
2022-12-25T20:26:25.378Z,7.96
2022-12-25T20:28:53.178Z,7.97
2022-12-25T20:31:30.023Z,8.00
2022-12-25T20:34:00.894Z,8.04
2022-12-25T20:36:36.099Z,8.07
2022-12-25T20:39:09.437Z,8.08
2022-12-25T20:41:38.902Z,8.09
2022-12-25T20:44:09.829Z,8.11
2022-12-25T20:46:37.706Z,8.12
2022-12-25T20:49:05.815Z,8.09
2022-12-25T20:51:33.610Z,8.11
2022-12-25T20:54:06.435Z,8.13
2022-12-25T20:56:34.461Z,8.12
2022-12-25T20:59:02.286Z,8.14
2022-12-25T21:01:31.887Z,8.17
2022-12-25T21:03:59.876Z,8.20
2022-12-25T21:06:27.805Z,8.21
2022-12-25T21:08:55.848Z,8.23
2022-12-25T21:11:23.633Z,8.23
2022-12-25T21:13:51.657Z,8.23
2022-12-25T21:16:22.115Z,8.27
2022-12-25T21:18:52.324Z,8.30
2022-12-25T21:21:21.188Z,8.30
2022-12-25T21:23:48.947Z,8.28
2022-12-25T21:26:24.920Z,8.29
2022-12-25T21:28:55.323Z,8.30
2022-12-25T21:31:24.382Z,8.31
2022-12-25T21:33:53.961Z,8.34
2022-12-25T21:36:30.123Z,8.32
2022-12-25T21:39:00.348Z,8.33
2022-12-25T21:41:30.162Z,8.35
2022-12-25T21:43:58.299Z,8.34
2022-12-25T21:46:26.545Z,8.32
2022-12-25T21:48:55.543Z,8.32
2022-12-25T21:51:48.293Z,8.30
2022-12-25T21:54:17.230Z,8.27
2022-12-25T21:56:47.027Z,8.24
2022-12-25T21:59:17.321Z,8.20
2022-12-25T22:01:45.912Z,8.16
2022-12-25T22:04:15.242Z,8.12
2022-12-25T22:07:02.074Z,8.08
2022-12-25T22:09:29.980Z,8.10
2022-12-25T22:12:17.342Z,8.08
2022-12-25T22:14:56.299Z,8.06
2022-12-25T22:17:45.811Z,8.06
2022-12-25T22:20:19.442Z,8.05
2022-12-25T22:22:48.035Z,8.02
2022-12-25T22:25:16.593Z,7.99
2022-12-25T22:27:45.697Z,7.94
2022-12-25T22:30:19.641Z,7.91
2022-12-25T22:32:48.141Z,7.91
2022-12-25T22:35:16.725Z,7.91
2022-12-25T22:37:45.284Z,7.92
2022-12-25T22:40:16.565Z,7.94
2022-12-25T22:42:44.417Z,7.95
2022-12-25T22:45:12.618Z,7.98
2022-12-25T22:47:41.067Z,7.98
2022-12-25T22:50:09.960Z,7.96
2022-12-25T22:52:38.125Z,8.00
2022-12-25T22:55:07.804Z,8.01
2022-12-25T22:57:36.229Z,8.01
2022-12-25T23:00:06.753Z,8.01
2022-12-25T23:02:35.217Z,8.03
2022-12-25T23:05:03.721Z,8.06
2022-12-25T23:07:31.582Z,8.05
2022-12-25T23:09:59.348Z,8.04
2022-12-25T23:12:45.788Z,8.06
2022-12-25T23:15:13.503Z,8.09
2022-12-25T23:18:00.306Z,8.06
2022-12-25T23:20:46.733Z,8.04
2022-12-25T23:23:34.832Z,8.00
2022-12-25T23:26:09.219Z,7.95
2022-12-25T23:28:57.386Z,7.91
2022-12-25T23:31:30.046Z,7.88
2022-12-25T23:33:58.243Z,7.90
2022-12-25T23:36:26.348Z,7.94
2022-12-25T23:38:54.523Z,7.94
2022-12-25T23:41:22.364Z,7.99
2022-12-25T23:43:50.346Z,8.00
2022-12-25T23:46:18.102Z,7.97
2022-12-25T23:48:46.022Z,7.98
2022-12-25T23:51:13.699Z,7.95
2022-12-25T23:53:41.478Z,7.93
2022-12-25T23:56:10.615Z,7.91
2022-12-25T23:58:38.435Z,7.90
